Time;durP1;ratioP1;P1;durP2;ratioP2;P2;SDS_P1;SDS_P2;PMS_P1;PMS_P2;Temp;Humidity;BMP_temperature;BMP_pressure;BME280_temperature;BME280_humidity;BME280_pressure;Samples;Min_cycle;Max_cycle;Signal;HPM_P1;HPM_P2
2023/12/14 00:01:18;;;;;;;0.70;0.70;;;5.10;99.90;;;;;;5042923;28;20532;-79
2023/12/14 00:03:44;;;;;;;0.80;0.80;;;5.20;99.90;;;;;;5039736;28;20188;-80
2023/12/14 00:06:12;;;;;;;0.70;0.70;;;5.50;99.90;;;;;;5037923;28;20682;-80
2023/12/14 00:08:38;;;;;;;0.70;0.70;;;5.10;99.90;;;;;;5038173;28;20191;-79
2023/12/14 00:11:08;;;;;;;0.80;0.80;;;5.10;99.90;;;;;;5037846;28;20175;-79
2023/12/14 00:13:34;;;;;;;0.70;0.70;;;5.20;99.90;;;;;;5021036;28;20208;-79
2023/12/14 00:16:00;;;;;;;0.80;0.80;;;5.30;99.90;;;;;;5037804;28;20191;-79
2023/12/14 00:18:26;;;;;;;0.80;0.80;;;5.20;99.90;;;;;;5037624;28;20176;-80
2023/12/14 00:20:52;;;;;;;0.70;0.70;;;5.20;99.90;;;;;;5020297;28;20168;-80
2023/12/14 00:23:18;;;;;;;0.70;0.70;;;5.20;99.90;;;;;;5037621;28;20171;-80
2023/12/14 00:25:43;;;;;;;0.70;0.70;;;5.20;99.90;;;;;;5037541;28;20262;-79
2023/12/14 00:28:09;;;;;;;0.70;0.70;;;5.30;99.90;;;;;;5038798;28;20221;-81
2023/12/14 00:30:35;;;;;;;0.70;0.70;;;5.20;99.90;;;;;;5039566;28;20172;-79
2023/12/14 00:33:00;;;;;;;0.80;0.80;;;5.30;99.90;;;;;;5037146;28;20195;-78
2023/12/14 00:35:26;;;;;;;0.80;0.80;;;5.30;99.90;;;;;;5036138;28;20188;-79
2023/12/14 00:37:51;;;;;;;0.80;0.80;;;5.30;99.90;;;;;;5037426;28;20188;-80
2023/12/14 00:40:17;;;;;;;0.70;0.70;;;5.20;99.90;;;;;;5034297;28;20239;-79
2023/12/14 00:42:42;;;;;;;0.70;0.70;;;5.20;99.90;;;;;;5035964;28;20184;-78
2023/12/14 00:45:09;;;;;;;0.70;0.70;;;5.20;99.90;;;;;;5035677;28;20226;-79
2023/12/14 00:47:34;;;;;;;0.70;0.70;;;5.30;99.90;;;;;;5035589;28;20682;-79
2023/12/14 00:50:00;;;;;;;0.70;0.70;;;5.30;99.90;;;;;;5036099;28;20175;-78
2023/12/14 00:52:25;;;;;;;0.70;0.70;;;5.30;99.90;;;;;;5035878;28;20176;-78
2023/12/14 00:54:51;;;;;;;0.80;0.80;;;5.30;99.90;;;;;;5035517;28;20241;-78
2023/12/14 00:57:16;;;;;;;0.70;0.70;;;5.30;99.90;;;;;;5035346;28;20199;-79
2023/12/14 00:59:42;;;;;;;0.70;0.70;;;5.30;99.90;;;;;;5035490;28;20219;-79
2023/12/14 01:02:07;;;;;;;0.80;0.80;;;5.30;99.90;;;;;;5017812;28;20182;-78
2023/12/14 01:04:33;;;;;;;0.80;0.80;;;5.30;99.90;;;;;;5035859;28;20215;-78
2023/12/14 01:06:59;;;;;;;0.80;0.80;;;5.30;99.90;;;;;;5035176;28;20245;-78
2023/12/14 01:09:24;;;;;;;0.70;0.70;;;5.30;99.90;;;;;;5018542;28;20184;-79
2023/12/14 01:11:50;;;;;;;0.70;0.70;;;5.30;99.90;;;;;;5036363;28;20168;-80
2023/12/14 01:14:15;;;;;;;0.70;0.70;;;5.30;99.90;;;;;;5036323;28;20179;-79
2023/12/14 01:16:41;;;;;;;0.70;0.70;;;5.30;99.90;;;;;;5035295;28;20195;-79
2023/12/14 01:19:07;;;;;;;0.80;0.80;;;5.30;99.90;;;;;;5035342;28;20665;-80
2023/12/14 01:21:33;;;;;;;0.77;0.77;;;5.30;99.90;;;;;;5035970;28;20621;-78
2023/12/14 01:24:00;;;;;;;0.77;0.77;;;5.30;99.90;;;;;;5018509;28;20176;-80
2023/12/14 01:26:26;;;;;;;0.70;0.70;;;5.30;99.90;;;;;;5035763;28;20210;-80
2023/12/14 01:28:52;;;;;;;0.70;0.70;;;5.30;99.90;;;;;;5036140;28;20522;-80
2023/12/14 01:31:17;;;;;;;0.90;0.90;;;5.30;99.90;;;;;;5036007;28;20172;-80
2023/12/14 01:33:45;;;;;;;0.70;0.70;;;5.30;99.90;;;;;;5036152;28;20184;-79
2023/12/14 01:36:11;;;;;;;0.70;0.70;;;5.20;99.90;;;;;;5035270;28;20226;-80
2023/12/14 01:38:37;;;;;;;0.60;0.60;;;5.20;99.90;;;;;;5036695;28;20211;-80
2023/12/14 01:41:02;;;;;;;0.73;0.73;;;5.20;99.90;;;;;;5036710;28;20172;-80
2023/12/14 01:43:28;;;;;;;0.80;0.80;;;5.20;99.90;;;;;;5036650;28;20230;-79
2023/12/14 01:45:53;;;;;;;0.70;0.70;;;5.20;99.90;;;;;;5035190;28;20257;-80
2023/12/14 01:48:19;;;;;;;0.67;0.67;;;5.20;99.90;;;;;;5036271;28;20187;-79
2023/12/14 01:50:44;;;;;;;0.73;0.73;;;5.20;99.90;;;;;;5036300;28;20176;-81
2023/12/14 01:53:10;;;;;;;0.80;0.80;;;5.20;99.90;;;;;;5036514;28;20179;-80
2023/12/14 01:55:35;;;;;;;0.80;0.80;;;5.30;99.90;;;;;;5035598;28;20191;-79
2023/12/14 01:58:01;;;;;;;0.70;0.70;;;5.30;99.90;;;;;;5035657;28;20180;-80
2023/12/14 02:01:03;;;;;;;0.80;0.80;;;5.20;99.90;;;;;;5034715;28;20204;-79
2023/12/14 02:03:28;;;;;;;0.70;0.70;;;5.20;99.90;;;;;;5036017;28;20175;-80
2023/12/14 02:05:54;;;;;;;0.77;0.77;;;5.20;99.90;;;;;;5035534;28;20203;-80
2023/12/14 02:08:19;;;;;;;0.70;0.70;;;5.30;99.90;;;;;;5035565;28;20258;-80
2023/12/14 02:10:45;;;;;;;0.70;0.70;;;5.40;99.90;;;;;;5036623;28;20257;-80
2023/12/14 02:13:10;;;;;;;0.70;0.70;;;5.30;99.90;;;;;;5018265;28;20172;-79
2023/12/14 02:15:36;;;;;;;0.70;0.70;;;5.30;99.90;;;;;;5035848;28;20281;-79
2023/12/14 02:18:01;;;;;;;0.80;0.80;;;5.30;99.90;;;;;;5035937;28;20172;-79
2023/12/14 02:20:27;;;;;;;0.70;0.70;;;5.30;99.90;;;;;;5035349;28;20212;-80
2023/12/14 02:22:56;;;;;;;0.70;0.70;;;5.20;99.90;;;;;;5036247;28;20176;-80
2023/12/14 02:25:23;;;;;;;0.70;0.70;;;5.20;99.90;;;;;;5034890;28;20180;-80
2023/12/14 02:27:51;;;;;;;0.77;0.77;;;5.20;99.90;;;;;;5018251;28;20266;-80
2023/12/14 02:30:17;;;;;;;0.80;0.80;;;5.10;99.90;;;;;;5018698;28;20668;-80
2023/12/14 02:32:43;;;;;;;0.80;0.80;;;5.20;99.90;;;;;;5036268;28;20267;-80
2023/12/14 02:35:08;;;;;;;0.73;0.73;;;5.10;99.90;;;;;;5036221;28;20219;-80
2023/12/14 02:37:37;;;;;;;0.80;0.80;;;5.20;99.90;;;;;;5037909;28;20196;-80
2023/12/14 02:40:04;;;;;;;0.80;0.80;;;5.10;99.90;;;;;;5046195;28;20204;-77
2023/12/14 02:42:30;;;;;;;0.77;0.77;;;5.20;99.90;;;;;;5051208;28;20172;-78
2023/12/14 02:44:56;;;;;;;0.80;0.80;;;5.20;99.90;;;;;;5034384;28;20179;-78
2023/12/14 02:47:22;;;;;;;0.70;0.70;;;5.10;99.90;;;;;;5051425;28;20176;-78
2023/12/14 02:49:48;;;;;;;0.70;0.70;;;5.10;99.90;;;;;;5051413;28;20704;-77
2023/12/14 02:52:13;;;;;;;0.80;0.80;;;5.10;99.90;;;;;;5052243;28;20160;-78
2023/12/14 02:54:39;;;;;;;0.80;0.80;;;5.10;99.90;;;;;;5046067;28;20184;-80
2023/12/14 02:57:05;;;;;;;0.70;0.70;;;5.00;99.90;;;;;;5036627;28;20210;-80
2023/12/14 02:59:31;;;;;;;0.70;0.70;;;5.00;99.90;;;;;;5036630;28;20230;-79
2023/12/14 03:01:56;;;;;;;0.70;0.70;;;5.00;99.90;;;;;;5037518;28;20187;-79
2023/12/14 03:04:22;;;;;;;0.80;0.80;;;5.10;99.90;;;;;;5039096;28;20168;-80
2023/12/14 03:06:47;;;;;;;0.80;0.80;;;5.00;99.90;;;;;;5038965;28;20257;-80
2023/12/14 03:09:13;;;;;;;0.80;0.80;;;5.00;99.90;;;;;;5045345;28;20168;-79
2023/12/14 03:11:38;;;;;;;0.80;0.80;;;5.10;99.90;;;;;;5034715;28;20556;-78
2023/12/14 03:14:04;;;;;;;0.70;0.70;;;5.10;99.90;;;;;;5034388;28;20263;-80
2023/12/14 03:16:29;;;;;;;0.80;0.80;;;5.10;99.90;;;;;;5034492;28;20227;-80
2023/12/14 03:18:56;;;;;;;0.70;0.70;;;5.10;99.90;;;;;;5034240;28;20227;-79
2023/12/14 03:21:22;;;;;;;0.70;0.70;;;5.10;99.90;;;;;;5038616;28;20200;-79
2023/12/14 03:23:48;;;;;;;0.80;0.80;;;5.10;99.90;;;;;;5037967;28;20183;-79
2023/12/14 03:26:13;;;;;;;0.80;0.80;;;5.10;99.90;;;;;;5037050;28;20196;-80
2023/12/14 03:28:39;;;;;;;0.70;0.70;;;5.10;99.90;;;;;;5037613;28;20175;-79
2023/12/14 03:31:04;;;;;;;0.70;0.70;;;5.20;99.90;;;;;;5037625;28;20183;-79
2023/12/14 03:33:30;;;;;;;0.80;0.80;;;5.20;99.90;;;;;;5037446;28;20195;-80
2023/12/14 03:35:55;;;;;;;0.80;0.80;;;5.20;99.90;;;;;;5036557;28;20226;-80
2023/12/14 03:38:21;;;;;;;0.77;0.77;;;5.20;99.90;;;;;;5037583;28;20183;-80
2023/12/14 03:40:47;;;;;;;0.70;0.70;;;5.20;99.90;;;;;;5037703;28;20259;-79
2023/12/14 03:43:12;;;;;;;0.70;0.70;;;5.20;99.90;;;;;;5037600;28;20195;-80
2023/12/14 03:45:38;;;;;;;0.80;0.80;;;5.20;99.90;;;;;;5019321;28;20199;-79
2023/12/14 03:48:03;;;;;;;0.80;0.80;;;5.20;99.90;;;;;;5037827;28;20182;-80
2023/12/14 03:50:29;;;;;;;0.70;0.70;;;5.20;99.90;;;;;;5020477;28;20180;-80
2023/12/14 03:52:54;;;;;;;0.80;0.80;;;5.20;99.90;;;;;;5019910;28;20199;-80
2023/12/14 03:55:20;;;;;;;0.77;0.77;;;5.20;99.90;;;;;;5037746;28;20204;-80
2023/12/14 03:57:45;;;;;;;0.80;0.80;;;5.20;99.90;;;;;;5038508;28;20765;-80
2023/12/14 04:00:13;;;;;;;0.70;0.70;;;5.20;99.90;;;;;;5039472;28;20208;-80
2023/12/14 04:02:39;;;;;;;0.80;0.80;;;5.20;99.90;;;;;;5021004;28;20552;-80
2023/12/14 04:05:08;;;;;;;0.70;0.70;;;5.20;99.90;;;;;;5038591;28;20217;-80
2023/12/14 04:07:39;;;;;;;0.70;0.70;;;5.30;99.90;;;;;;5020690;28;20191;-79
2023/12/14 04:10:05;;;;;;;0.77;0.77;;;5.30;99.90;;;;;;5036595;28;20652;-80
2023/12/14 04:12:30;;;;;;;0.77;0.77;;;5.30;99.90;;;;;;5019199;28;20176;-80
2023/12/14 04:14:56;;;;;;;0.70;0.70;;;5.20;99.90;;;;;;5036925;28;20184;-79
2023/12/14 04:17:21;;;;;;;0.80;0.80;;;5.20;99.90;;;;;;5036056;28;20195;-80
2023/12/14 04:19:47;;;;;;;0.70;0.70;;;5.20;99.90;;;;;;5036606;28;20212;-79
2023/12/14 04:22:12;;;;;;;0.80;0.80;;;5.30;99.90;;;;;;5037320;28;20266;-79
2023/12/14 04:24:38;;;;;;;0.80;0.80;;;5.30;99.90;;;;;;5036629;28;20180;-79
2023/12/14 04:27:04;;;;;;;0.80;0.80;;;5.30;99.90;;;;;;5018409;28;20314;-78
2023/12/14 04:29:29;;;;;;;0.77;0.77;;;5.30;99.90;;;;;;5036120;28;20230;-80
2023/12/14 04:31:56;;;;;;;0.80;0.80;;;5.30;99.90;;;;;;5018784;28;20556;-79
2023/12/14 04:34:21;;;;;;;0.70;0.70;;;5.30;99.90;;;;;;5036960;28;20183;-78
2023/12/14 04:36:47;;;;;;;0.80;0.80;;;5.30;99.90;;;;;;5036155;28;20204;-80
2023/12/14 04:39:13;;;;;;;0.70;0.70;;;5.30;99.90;;;;;;5036829;28;20208;-79
2023/12/14 04:41:39;;;;;;;0.80;0.80;;;5.30;99.90;;;;;;5036462;28;20179;-80
2023/12/14 04:44:04;;;;;;;0.90;0.90;;;5.30;99.90;;;;;;5037347;28;20211;-80
2023/12/14 04:46:30;;;;;;;0.70;0.70;;;5.20;99.90;;;;;;5036314;28;20188;-80
2023/12/14 04:48:56;;;;;;;0.80;0.80;;;5.30;99.90;;;;;;5036686;28;20646;-81
2023/12/14 04:51:21;;;;;;;0.77;0.77;;;5.30;99.90;;;;;;5037074;28;20178;-80
2023/12/14 04:53:47;;;;;;;0.73;0.73;;;5.30;99.90;;;;;;5037178;28;20184;-81
2023/12/14 04:56:12;;;;;;;0.80;0.80;;;5.30;99.90;;;;;;5036705;28;20568;-81
2023/12/14 04:58:41;;;;;;;0.77;0.77;;;5.30;99.90;;;;;;5036390;28;20220;-80
2023/12/14 05:01:07;;;;;;;0.70;0.70;;;5.30;99.90;;;;;;5036795;28;20337;-81
2023/12/14 05:03:36;;;;;;;0.80;0.80;;;5.40;99.90;;;;;;5037343;28;20192;-80
2023/12/14 05:06:01;;;;;;;0.70;0.70;;;5.40;99.90;;;;;;5037333;28;20195;-82
2023/12/14 05:08:27;;;;;;;0.80;0.80;;;5.40;99.90;;;;;;5037475;28;20176;-81
2023/12/14 05:10:52;;;;;;;0.80;0.80;;;5.30;99.90;;;;;;5036740;28;20172;-80
2023/12/14 05:13:18;;;;;;;0.70;0.70;;;5.30;99.90;;;;;;5036742;28;20195;-81
2023/12/14 05:15:44;;;;;;;0.90;0.90;;;5.30;99.90;;;;;;5036520;28;20203;-80
2023/12/14 05:18:09;;;;;;;0.80;0.80;;;5.30;99.90;;;;;;5036811;28;20171;-80
2023/12/14 05:20:35;;;;;;;0.80;0.80;;;5.30;99.90;;;;;;5019220;28;20356;-80
2023/12/14 05:23:01;;;;;;;0.90;0.90;;;5.30;99.90;;;;;;5036861;28;20225;-81
2023/12/14 05:25:27;;;;;;;0.73;0.73;;;5.30;99.90;;;;;;5037182;28;20215;-81
2023/12/14 05:27:53;;;;;;;0.80;0.80;;;5.30;99.90;;;;;;5019312;28;20167;-80
2023/12/14 05:30:18;;;;;;;0.80;0.80;;;5.40;99.90;;;;;;5037180;28;20270;-81
2023/12/14 05:32:44;;;;;;;0.70;0.70;;;5.40;99.90;;;;;;5036817;28;20168;-81
2023/12/14 05:35:10;;;;;;;0.70;0.70;;;5.40;99.90;;;;;;5036987;28;20172;-80
2023/12/14 05:37:38;;;;;;;0.70;0.70;;;5.40;99.90;;;;;;5037968;28;20168;-80
2023/12/14 05:40:03;;;;;;;0.80;0.80;;;5.50;99.90;;;;;;5037317;28;20278;-82
2023/12/14 05:42:29;;;;;;;0.80;0.80;;;5.50;99.90;;;;;;5037658;28;20169;-81
2023/12/14 05:44:55;;;;;;;0.80;0.80;;;5.50;99.90;;;;;;5037162;28;20230;-81
2023/12/14 05:47:21;;;;;;;0.77;0.77;;;5.50;99.90;;;;;;5038474;28;20257;-81
2023/12/14 05:49:46;;;;;;;0.70;0.70;;;5.50;99.90;;;;;;5037697;28;20183;-80
2023/12/14 05:52:12;;;;;;;0.80;0.80;;;5.50;99.90;;;;;;5020645;28;20318;-82
2023/12/14 05:54:39;;;;;;;0.80;0.80;;;5.40;99.90;;;;;;5023373;28;20171;-79
2023/12/14 05:57:05;;;;;;;0.80;0.80;;;5.40;99.90;;;;;;5049757;28;20227;-80
2023/12/14 05:59:31;;;;;;;0.80;0.80;;;5.40;99.90;;;;;;5050057;28;20215;-80
2023/12/14 06:01:57;;;;;;;0.80;0.80;;;5.40;99.90;;;;;;5037259;28;20183;-80
2023/12/14 06:04:23;;;;;;;0.80;0.80;;;5.50;99.90;;;;;;5050183;28;20180;-79
2023/12/14 06:06:49;;;;;;;0.80;0.80;;;5.40;99.90;;;;;;5049992;28;20206;-79
2023/12/14 06:09:14;;;;;;;0.80;0.80;;;5.40;99.90;;;;;;5048819;28;20184;-80
2023/12/14 06:11:40;;;;;;;0.80;0.80;;;5.50;99.90;;;;;;5045985;28;20172;-80
2023/12/14 06:14:05;;;;;;;0.80;0.80;;;5.50;99.90;;;;;;5018834;28;20179;-81
2023/12/14 06:16:33;;;;;;;0.70;0.70;;;5.50;99.90;;;;;;5035708;28;20192;-82
2023/12/14 06:18:58;;;;;;;0.80;0.80;;;5.50;99.90;;;;;;5036692;28;20206;-81
2023/12/14 06:21:28;;;;;;;0.80;0.80;;;5.50;99.90;;;;;;5036349;28;20175;-81
2023/12/14 06:23:54;;;;;;;0.80;0.80;;;5.60;99.90;;;;;;5038396;28;20978;-80
2023/12/14 06:26:19;;;;;;;0.60;0.60;;;6.20;99.90;;;;;;5036137;28;20187;-80
2023/12/14 06:28:45;;;;;;;0.73;0.73;;;5.60;99.90;;;;;;5035049;28;20657;-81
2023/12/14 06:31:14;;;;;;;0.77;0.77;;;5.70;99.90;;;;;;5032269;28;20171;-81
2023/12/14 06:33:40;;;;;;;0.70;0.70;;;5.70;99.90;;;;;;5035161;28;20187;-81
2023/12/14 06:36:07;;;;;;;0.90;0.90;;;5.70;99.90;;;;;;5034916;28;20573;-82
2023/12/14 06:38:32;;;;;;;0.70;0.70;;;5.70;99.90;;;;;;5035269;28;20546;-80
2023/12/14 06:40:58;;;;;;;0.60;0.60;;;5.70;99.90;;;;;;5035313;28;20263;-80
2023/12/14 06:43:23;;;;;;;0.60;0.60;;;5.70;99.90;;;;;;5035177;28;20188;-81
2023/12/14 06:45:49;;;;;;;0.80;0.80;;;5.70;99.90;;;;;;5034458;28;20556;-80
2023/12/14 06:48:15;;;;;;;0.80;0.80;;;5.70;99.90;;;;;;5035498;28;20222;-80
2023/12/14 06:50:41;;;;;;;0.80;0.80;;;5.70;99.90;;;;;;5043157;28;20282;-79
2023/12/14 06:53:06;;;;;;;0.70;0.70;;;5.70;99.90;;;;;;5035370;28;20255;-80
2023/12/14 06:55:32;;;;;;;0.70;0.70;;;6.40;99.90;;;;;;5033964;28;20198;-81
2023/12/14 06:57:57;;;;;;;0.70;0.70;;;5.60;99.90;;;;;;5034967;28;20176;-80
2023/12/14 07:00:23;;;;;;;0.80;0.80;;;5.70;99.90;;;;;;5035009;28;20280;-80
2023/12/14 07:02:48;;;;;;;0.80;0.80;;;5.70;99.90;;;;;;5035011;28;20204;-80
2023/12/14 07:05:14;;;;;;;0.80;0.80;;;5.70;99.90;;;;;;5035094;28;20259;-80
2023/12/14 07:07:40;;;;;;;0.70;0.70;;;5.70;99.90;;;;;;5034936;28;20229;-80
2023/12/14 07:10:06;;;;;;;0.77;0.77;;;5.70;99.90;;;;;;5017027;28;20186;-80
2023/12/14 07:12:31;;;;;;;0.80;0.80;;;5.70;99.90;;;;;;5034239;28;20266;-82
2023/12/14 07:14:57;;;;;;;0.73;0.73;;;5.70;99.90;;;;;;5034228;28;20180;-80
2023/12/14 07:17:23;;;;;;;0.80;0.80;;;5.70;99.90;;;;;;5044061;28;20227;-80
2023/12/14 07:19:49;;;;;;;0.80;0.80;;;5.80;99.90;;;;;;5043394;28;20200;-80
2023/12/14 07:22:15;;;;;;;0.70;0.70;;;5.80;99.90;;;;;;5040585;28;20238;-80
2023/12/14 07:24:41;;;;;;;0.80;0.80;;;5.90;99.90;;;;;;5053469;28;20687;-81
2023/12/14 07:27:07;;;;;;;0.77;0.77;;;5.90;99.90;;;;;;5043010;28;20227;-81
2023/12/14 07:29:32;;;;;;;0.80;0.80;;;6.00;99.90;;;;;;5041834;28;20179;-80
2023/12/14 07:31:58;;;;;;;0.80;0.80;;;6.00;99.90;;;;;;5041845;28;20171;-81
2023/12/14 07:34:24;;;;;;;0.80;0.80;;;5.90;99.90;;;;;;5044566;28;20187;-80
2023/12/14 07:36:50;;;;;;;0.70;0.70;;;5.90;99.90;;;;;;5016760;28;20227;-80
2023/12/14 07:39:15;;;;;;;0.80;0.80;;;6.00;99.90;;;;;;5036612;28;20231;-79
2023/12/14 07:41:41;;;;;;;0.70;0.70;;;6.00;99.90;;;;;;5035581;28;20179;-80
2023/12/14 07:44:07;;;;;;;0.70;0.70;;;6.00;99.90;;;;;;5033514;28;20184;-80
2023/12/14 07:46:32;;;;;;;0.80;0.80;;;6.00;99.90;;;;;;5033709;28;20274;-80
2023/12/14 07:48:58;;;;;;;0.70;0.70;;;6.10;99.90;;;;;;5054146;28;20233;-81
2023/12/14 07:51:24;;;;;;;0.80;0.80;;;6.00;99.90;;;;;;5049711;28;20200;-80
2023/12/14 07:53:49;;;;;;;0.70;0.70;;;6.10;99.90;;;;;;5038244;28;20195;-80
2023/12/14 07:56:15;;;;;;;0.70;0.70;;;6.10;99.90;;;;;;5041932;28;20199;-81
2023/12/14 07:58:40;;;;;;;0.70;0.70;;;6.10;99.90;;;;;;5018736;28;20187;-81
2023/12/14 08:01:07;;;;;;;0.70;0.70;;;6.00;99.90;;;;;;5040691;28;20183;-79
2023/12/14 08:03:33;;;;;;;0.80;0.80;;;6.00;99.90;;;;;;5040571;28;20183;-80
2023/12/14 08:05:59;;;;;;;0.77;0.77;;;6.10;99.90;;;;;;5040704;28;20200;-80
2023/12/14 08:08:25;;;;;;;0.80;0.80;;;6.20;99.90;;;;;;5047514;28;20171;-80
2023/12/14 08:10:50;;;;;;;0.80;0.80;;;6.30;99.90;;;;;;5030036;28;20260;-78
2023/12/14 08:13:16;;;;;;;0.70;0.70;;;6.40;99.90;;;;;;5021167;28;20616;-81
2023/12/14 08:15:41;;;;;;;0.80;0.80;;;6.80;99.90;;;;;;5013473;28;20231;-81
2023/12/14 08:18:07;;;;;;;0.80;0.80;;;6.50;99.90;;;;;;5012199;28;20188;-81
2023/12/14 08:20:33;;;;;;;0.80;0.80;;;6.70;99.90;;;;;;5035990;28;20203;-80
2023/12/14 08:22:58;;;;;;;0.60;0.60;;;6.70;99.90;;;;;;5039091;28;20222;-81
2023/12/14 08:25:24;;;;;;;0.70;0.70;;;6.80;99.90;;;;;;5038337;28;20183;-80
2023/12/14 08:27:51;;;;;;;0.60;0.60;;;6.90;99.90;;;;;;5038546;28;20168;-81
2023/12/14 08:30:17;;;;;;;0.70;0.70;;;7.10;99.90;;;;;;5038871;28;20567;-81
2023/12/14 08:32:43;;;;;;;0.60;0.60;;;7.60;99.90;;;;;;5037930;28;20183;-78
2023/12/14 08:35:08;;;;;;;0.53;0.53;;;7.70;99.90;;;;;;5037890;28;20200;-80
2023/12/14 08:37:35;;;;;;;0.70;0.70;;;7.70;99.90;;;;;;5038674;28;20681;-80
2023/12/14 08:40:01;;;;;;;0.60;0.60;;;7.60;99.90;;;;;;5037881;28;20264;-81
2023/12/14 08:42:26;;;;;;;0.60;0.60;;;7.50;99.90;;;;;;5038490;28;20436;-79
2023/12/14 08:44:52;;;;;;;0.60;0.60;;;7.40;99.90;;;;;;5038759;28;20525;-78
2023/12/14 08:47:18;;;;;;;0.60;0.60;;;7.70;99.90;;;;;;5036699;28;20243;-79
2023/12/14 08:49:43;;;;;;;0.60;0.60;;;7.10;99.90;;;;;;5037398;28;20307;-79
2023/12/14 08:52:11;;;;;;;0.70;0.70;;;7.00;99.90;;;;;;5037590;28;20170;-79
2023/12/14 08:54:37;;;;;;;0.70;0.70;;;7.00;99.90;;;;;;5037108;28;20167;-80
2023/12/14 08:57:02;;;;;;;0.70;0.70;;;6.90;99.90;;;;;;5035756;28;20222;-79
2023/12/14 08:59:28;;;;;;;0.70;0.70;;;7.00;99.90;;;;;;5037181;28;20729;-79
2023/12/14 09:01:53;;;;;;;0.73;0.73;;;7.00;99.90;;;;;;5037279;28;20227;-79
2023/12/14 09:04:20;;;;;;;0.70;0.70;;;7.00;99.90;;;;;;5037924;28;20242;-80
2023/12/14 09:06:46;;;;;;;0.70;0.70;;;7.00;99.90;;;;;;5018530;28;20191;-79
2023/12/14 09:09:12;;;;;;;0.67;0.67;;;7.00;99.90;;;;;;5037401;28;20180;-79
2023/12/14 09:11:38;;;;;;;0.70;0.70;;;7.00;99.90;;;;;;5039182;28;20195;-80
2023/12/14 09:14:03;;;;;;;0.67;0.67;;;7.00;99.90;;;;;;5036765;28;20176;-80
2023/12/14 09:16:29;;;;;;;0.50;0.50;;;7.10;99.90;;;;;;5035792;28;20242;-79
2023/12/14 09:18:54;;;;;;;0.67;0.67;;;7.20;99.90;;;;;;5037090;28;20212;-79
2023/12/14 09:21:20;;;;;;;0.67;0.67;;;7.30;99.90;;;;;;5036977;28;20176;-79
2023/12/14 09:23:45;;;;;;;0.77;0.77;;;7.30;99.90;;;;;;5037276;28;20195;-80
2023/12/14 09:26:11;;;;;;;0.60;0.60;;;7.40;99.90;;;;;;5036295;28;20697;-81
2023/12/14 09:28:39;;;;;;;0.70;0.70;;;7.50;99.90;;;;;;5037724;28;20183;-85
2023/12/14 09:31:04;;;;;;;0.60;0.60;;;7.70;99.90;;;;;;5025792;28;20180;-79
2023/12/14 09:33:30;;;;;;;0.60;0.60;;;7.80;99.90;;;;;;5016736;28;20179;-81
2023/12/14 09:35:55;;;;;;;0.63;0.63;;;7.70;99.90;;;;;;5035849;28;20188;-80
2023/12/14 09:38:21;;;;;;;0.70;0.70;;;7.60;99.90;;;;;;5036311;28;20179;-82
2023/12/14 09:40:46;;;;;;;0.63;0.63;;;7.50;99.90;;;;;;5027555;28;20611;-81
2023/12/14 09:43:13;;;;;;;0.80;0.80;;;7.50;99.90;;;;;;5034120;28;20330;-82
2023/12/14 09:45:44;;;;;;;0.73;0.73;;;7.50;99.90;;;;;;5016502;28;20219;-79
2023/12/14 09:48:10;;;;;;;0.70;0.70;;;7.50;99.90;;;;;;5024621;28;20223;-81
2023/12/14 09:50:39;;;;;;;0.80;0.80;;;7.50;99.90;;;;;;5036791;28;20572;-82
2023/12/14 09:53:04;;;;;;;0.60;0.60;;;7.50;99.90;;;;;;5037105;28;20183;-81
2023/12/14 09:55:31;;;;;;;0.60;0.60;;;7.50;99.90;;;;;;5037278;28;20187;-82
2023/12/14 09:57:56;;;;;;;0.60;0.60;;;7.50;99.90;;;;;;5037713;28;20179;-79
2023/12/14 10:00:39;;;;;;;0.60;0.60;;;7.60;99.90;;;;;;5046516;28;20273;-80
2023/12/14 10:03:28;;;;;;;0.60;0.60;;;7.80;99.90;;;;;;5036617;28;20254;-82
2023/12/14 10:05:58;;;;;;;0.73;0.73;;;7.90;99.90;;;;;;5017992;28;20222;-81
2023/12/14 10:08:25;;;;;;;0.70;0.70;;;8.00;99.90;;;;;;5033416;28;20203;-81
2023/12/14 10:10:55;;;;;;;0.70;0.70;;;8.10;99.90;;;;;;5036119;28;20617;-82
2023/12/14 10:13:36;;;;;;;0.67;0.67;;;8.20;99.90;;;;;;5035657;28;20190;-81
2023/12/14 10:16:01;;;;;;;0.60;0.60;;;8.20;99.90;;;;;;5035209;28;20666;-80
2023/12/14 10:18:28;;;;;;;0.70;0.70;;;8.30;99.90;;;;;;5035740;28;20275;-81
2023/12/14 10:20:54;;;;;;;0.70;0.70;;;8.20;99.90;;;;;;5018175;28;20936;-80
2023/12/14 10:23:20;;;;;;;0.70;0.70;;;8.10;99.90;;;;;;5035801;28;20176;-79
2023/12/14 10:25:46;;;;;;;0.50;0.50;;;8.10;99.90;;;;;;5036336;28;20184;-80
2023/12/14 10:28:15;;;;;;;0.60;0.60;;;8.20;99.90;;;;;;5019378;28;20326;-78
2023/12/14 10:30:42;;;;;;;0.60;0.60;;;8.60;99.90;;;;;;5021495;28;20180;-80
2023/12/14 10:33:07;;;;;;;0.60;0.60;;;10.40;99.90;;;;;;5035891;28;20172;-81
2023/12/14 10:35:33;;;;;;;0.50;0.50;;;9.80;29.00;;;;;;5017243;28;20195;-81
2023/12/14 10:38:03;;;;;;;0.60;0.60;;;9.80;18.90;;;;;;5034621;28;20172;-79
2023/12/14 10:40:30;;;;;;;0.40;0.40;;;9.60;90.00;;;;;;5034472;28;20632;-80
2023/12/14 10:43:00;;;;;;;0.63;0.63;;;9.40;49.30;;;;;;5016222;28;20182;-80
2023/12/14 10:45:32;;;;;;;0.67;0.67;;;9.30;96.50;;;;;;5035223;28;20180;-81
2023/12/14 10:47:59;;;;;;;0.60;0.60;;;9.20;96.80;;;;;;5047420;28;20225;-80
2023/12/14 10:50:28;;;;;;;0.50;0.50;;;9.20;85.00;;;;;;5043469;28;20242;-81
2023/12/14 10:52:54;;;;;;;0.50;0.50;;;9.00;54.10;;;;;;5035405;28;20267;-81
2023/12/14 10:55:27;;;;;;;0.60;0.60;;;9.10;90.80;;;;;;5035379;28;20176;-81
2023/12/14 10:57:55;;;;;;;0.50;0.50;;;9.10;79.10;;;;;;5035908;28;20219;-81
2023/12/14 11:00:20;;;;;;;0.50;0.50;;;9.40;99.90;;;;;;5020519;28;20242;-83
2023/12/14 11:02:47;;;;;;;0.60;0.60;;;9.80;99.90;;;;;;5023076;28;20700;-82
2023/12/14 11:05:19;;;;;;;0.60;0.60;;;10.10;37.40;;;;;;5040835;28;20179;-81
2023/12/14 11:07:53;;;;;;;0.40;0.40;;;11.40;1.00;;;;;;5037526;28;20242;-82
2023/12/14 11:10:36;;;;;;;0.50;0.50;;;11.50;1.00;;;;;;5037116;28;20175;-81
2023/12/14 11:13:03;;;;;;;0.50;0.50;;;11.30;1.00;;;;;;5036427;28;20172;-82
2023/12/14 11:15:30;;;;;;;0.50;0.50;;;11.50;1.00;;;;;;5035531;28;20175;-80
2023/12/14 11:18:08;;;;;;;0.60;0.60;;;12.10;1.00;;;;;;5039491;28;20255;-80
2023/12/14 11:20:46;;;;;;;0.50;0.50;;;11.60;1.00;;;;;;5038169;28;20215;-81
2023/12/14 11:23:41;;;;;;;0.60;0.60;;;11.60;1.00;;;;;;5036869;28;20180;-80
2023/12/14 11:26:09;;;;;;;0.50;0.50;;;12.00;1.00;;;;;;5016327;28;20321;-80
2023/12/14 11:28:37;;;;;;;0.50;0.50;;;11.60;1.00;;;;;;5036862;28;20557;-80
2023/12/14 11:31:06;;;;;;;0.40;0.40;;;11.10;1.00;;;;;;5035163;28;20322;-80
2023/12/14 11:33:35;;;;;;;0.40;0.40;;;11.00;1.00;;;;;;5018547;28;20558;-82
2023/12/14 11:36:03;;;;;;;0.57;0.57;;;10.60;1.00;;;;;;5038431;28;20188;-81
2023/12/14 11:38:30;;;;;;;0.40;0.40;;;10.50;1.00;;;;;;5037321;28;20653;-80
2023/12/14 11:40:55;;;;;;;0.50;0.50;;;11.00;1.00;;;;;;5019830;28;20203;-84
2023/12/14 11:43:21;;;;;;;0.50;0.50;;;11.70;1.00;;;;;;5039731;28;20192;-82
2023/12/14 11:45:47;;;;;;;0.40;0.40;;;11.30;1.00;;;;;;5024021;28;20188;-80
2023/12/14 11:48:14;;;;;;;0.50;0.50;;;10.80;1.00;;;;;;5039576;28;20175;-81
2023/12/14 11:50:41;;;;;;;0.43;0.43;;;10.20;1.00;;;;;;5022511;28;20176;-81
2023/12/14 11:53:07;;;;;;;0.40;0.40;;;10.20;1.00;;;;;;5040267;28;20176;-81
2023/12/14 11:55:35;;;;;;;0.40;0.40;;;9.90;11.40;;;;;;5039022;28;20270;-80
2023/12/14 11:58:05;;;;;;;0.40;0.40;;;9.60;37.10;;;;;;5040795;28;20164;-82
2023/12/14 12:00:31;;;;;;;0.53;0.53;;;9.60;39.70;;;;;;5040254;28;20279;-80
2023/12/14 12:03:11;;;;;;;0.50;0.50;;;9.50;42.10;;;;;;5046576;28;20171;-80
2023/12/14 12:05:48;;;;;;;0.50;0.50;;;9.30;47.60;;;;;;5054876;28;20199;-78
2023/12/14 12:08:16;;;;;;;0.40;0.40;;;9.10;57.60;;;;;;5055994;28;20194;-79
2023/12/14 12:10:43;;;;;;;0.50;0.50;;;9.10;98.10;;;;;;5053615;28;20176;-78
2023/12/14 12:13:14;;;;;;;0.60;0.60;;;9.00;95.60;;;;;;5050204;28;20231;-79
2023/12/14 12:15:39;;;;;;;0.70;0.70;;;8.90;99.90;;;;;;5057105;28;20176;-78
2023/12/14 12:18:28;;;;;;;0.50;0.50;;;9.00;99.90;;;;;;5060052;28;20168;-79
2023/12/14 12:20:53;;;;;;;0.57;0.57;;;8.90;99.90;;;;;;5058084;28;20242;-79
2023/12/14 12:23:19;;;;;;;0.50;0.50;;;8.90;99.90;;;;;;5059493;28;20184;-78
2023/12/14 12:25:44;;;;;;;0.50;0.50;;;8.90;99.90;;;;;;5057633;28;20195;-81
2023/12/14 12:28:10;;;;;;;0.70;0.70;;;8.90;99.90;;;;;;5043373;28;20272;-80
2023/12/14 12:30:36;;;;;;;0.53;0.53;;;8.80;99.90;;;;;;5055853;28;20187;-79
2023/12/14 12:33:01;;;;;;;0.60;0.60;;;8.80;96.20;;;;;;5059392;28;20198;-78
2023/12/14 12:35:30;;;;;;;0.53;0.53;;;8.70;10.40;;;;;;5038937;28;20181;-82
2023/12/14 12:37:56;;;;;;;0.57;0.57;;;8.70;1.00;;;;;;5031937;28;20264;-81
2023/12/14 12:40:22;;;;;;;0.50;0.50;;;8.70;1.00;;;;;;5023242;28;20206;-80
2023/12/14 12:42:49;;;;;;;0.60;0.60;;;8.90;1.00;;;;;;5023054;28;20278;-81
2023/12/14 12:45:17;;;;;;;0.60;0.60;;;9.10;1.00;;;;;;5037189;28;20176;-82
2023/12/14 12:47:43;;;;;;;0.60;0.60;;;9.30;1.00;;;;;;5042576;28;20318;-82
2023/12/14 12:50:09;;;;;;;0.50;0.50;;;9.20;1.00;;;;;;5039632;28;20203;-82
2023/12/14 12:52:35;;;;;;;0.60;0.60;;;9.50;1.00;;;;;;5039632;28;20180;-82
2023/12/14 12:55:01;;;;;;;0.53;0.53;;;9.20;1.00;;;;;;5039331;28;20188;-81